sensor_id;sensor_type;location;lat;lon;timestamp;P1;durP1;ratioP1;P2;durP2;ratioP2
8331;SDS011;4203;48.144;14.118;2023-02-01T00:01:58;3.90;;;1.40;;
8331;SDS011;4203;48.144;14.118;2023-02-01T00:04:26;1.40;;;1.30;;
8331;SDS011;4203;48.144;14.118;2023-02-01T00:06:54;2.10;;;1.33;;
8331;SDS011;4203;48.144;14.118;2023-02-01T00:09:21;2.07;;;1.30;;
8331;SDS011;4203;48.144;14.118;2023-02-01T00:11:48;1.10;;;1.10;;
8331;SDS011;4203;48.144;14.118;2023-02-01T00:14:15;1.67;;;1.30;;
8331;SDS011;4203;48.144;14.118;2023-02-01T00:16:43;2.10;;;1.60;;
8331;SDS011;4203;48.144;14.118;2023-02-01T00:19:11;1.60;;;1.50;;
8331;SDS011;4203;48.144;14.118;2023-02-01T00:21:41;1.57;;;1.47;;
8331;SDS011;4203;48.144;14.118;2023-02-01T00:24:10;2.10;;;1.27;;
8331;SDS011;4203;48.144;14.118;2023-02-01T00:26:39;1.50;;;1.50;;
8331;SDS011;4203;48.144;14.118;2023-02-01T00:29:09;1.60;;;1.50;;
8331;SDS011;4203;48.144;14.118;2023-02-01T00:31:38;4.00;;;1.30;;
8331;SDS011;4203;48.144;14.118;2023-02-01T00:34:06;1.10;;;1.10;;
8331;SDS011;4203;48.144;14.118;2023-02-01T00:36:35;1.50;;;1.40;;
8331;SDS011;4203;48.144;14.118;2023-02-01T00:39:04;2.37;;;1.23;;
8331;SDS011;4203;48.144;14.118;2023-02-01T00:41:31;2.37;;;1.50;;
8331;SDS011;4203;48.144;14.118;2023-02-01T00:44:00;1.40;;;1.40;;
8331;SDS011;4203;48.144;14.118;2023-02-01T00:46:28;1.53;;;1.40;;
8331;SDS011;4203;48.144;14.118;2023-02-01T00:48:55;2.40;;;1.40;;
8331;SDS011;4203;48.144;14.118;2023-02-01T00:51:23;1.43;;;1.40;;
8331;SDS011;4203;48.144;14.118;2023-02-01T00:53:51;1.60;;;1.50;;
8331;SDS011;4203;48.144;14.118;2023-02-01T00:56:20;1.63;;;1.53;;
8331;SDS011;4203;48.144;14.118;2023-02-01T00:58:47;1.30;;;1.30;;
8331;SDS011;4203;48.144;14.118;2023-02-01T01:01:16;1.60;;;1.50;;
8331;SDS011;4203;48.144;14.118;2023-02-01T01:03:45;1.57;;;1.50;;
8331;SDS011;4203;48.144;14.118;2023-02-01T01:06:16;1.30;;;1.30;;
8331;SDS011;4203;48.144;14.118;2023-02-01T01:08:44;2.40;;;1.87;;
8331;SDS011;4203;48.144;14.118;2023-02-01T01:11:12;1.70;;;1.60;;
8331;SDS011;4203;48.144;14.118;2023-02-01T01:13:42;2.03;;;1.80;;
8331;SDS011;4203;48.144;14.118;2023-02-01T01:16:10;1.77;;;1.67;;
8331;SDS011;4203;48.144;14.118;2023-02-01T01:18:37;1.67;;;1.57;;
8331;SDS011;4203;48.144;14.118;2023-02-01T01:21:05;2.27;;;2.07;;
8331;SDS011;4203;48.144;14.118;2023-02-01T01:23:33;1.40;;;1.40;;
8331;SDS011;4203;48.144;14.118;2023-02-01T01:26:04;1.83;;;1.73;;
8331;SDS011;4203;48.144;14.118;2023-02-01T01:28:31;1.60;;;1.50;;
8331;SDS011;4203;48.144;14.118;2023-02-01T01:31:00;1.93;;;1.83;;
8331;SDS011;4203;48.144;14.118;2023-02-01T01:33:27;2.43;;;2.23;;
8331;SDS011;4203;48.144;14.118;2023-02-01T01:35:55;1.90;;;1.80;;
8331;SDS011;4203;48.144;14.118;2023-02-01T01:38:22;2.20;;;2.00;;
8331;SDS011;4203;48.144;14.118;2023-02-01T01:40:49;2.50;;;2.30;;
8331;SDS011;4203;48.144;14.118;2023-02-01T01:43:18;3.07;;;2.30;;
8331;SDS011;4203;48.144;14.118;2023-02-01T01:45:47;2.30;;;2.10;;
8331;SDS011;4203;48.144;14.118;2023-02-01T01:48:17;2.37;;;2.17;;
8331;SDS011;4203;48.144;14.118;2023-02-01T01:50:49;3.57;;;3.27;;
8331;SDS011;4203;48.144;14.118;2023-02-01T01:53:25;2.27;;;2.17;;
8331;SDS011;4203;48.144;14.118;2023-02-01T01:55:54;3.23;;;2.47;;
8331;SDS011;4203;48.144;14.118;2023-02-01T01:58:23;2.10;;;2.00;;
8331;SDS011;4203;48.144;14.118;2023-02-01T02:00:55;2.50;;;2.30;;
8331;SDS011;4203;48.144;14.118;2023-02-01T02:03:25;2.40;;;2.20;;
8331;SDS011;4203;48.144;14.118;2023-02-01T02:06:00;3.90;;;2.60;;
8331;SDS011;4203;48.144;14.118;2023-02-01T02:08:30;2.40;;;2.20;;
8331;SDS011;4203;48.144;14.118;2023-02-01T02:10:59;2.70;;;2.50;;
8331;SDS011;4203;48.144;14.118;2023-02-01T02:13:31;2.37;;;2.23;;
8331;SDS011;4203;48.144;14.118;2023-02-01T02:18:56;2.80;;;2.60;;
8331;SDS011;4203;48.144;14.118;2023-02-01T02:21:41;2.70;;;2.50;;
8331;SDS011;4203;48.144;14.118;2023-02-01T02:24:34;2.77;;;2.57;;
8331;SDS011;4203;48.144;14.118;2023-02-01T02:27:28;2.43;;;2.23;;
8331;SDS011;4203;48.144;14.118;2023-02-01T02:36:35;3.70;;;2.20;;
8331;SDS011;4203;48.144;14.118;2023-02-01T02:39:12;3.13;;;2.50;;
8331;SDS011;4203;48.144;14.118;2023-02-01T02:41:49;2.77;;;2.57;;
8331;SDS011;4203;48.144;14.118;2023-02-01T02:44:41;3.23;;;2.40;;
8331;SDS011;4203;48.144;14.118;2023-02-01T02:47:33;2.40;;;2.30;;
8331;SDS011;4203;48.144;14.118;2023-02-01T02:50:05;2.27;;;2.17;;
8331;SDS011;4203;48.144;14.118;2023-02-01T02:53:04;4.23;;;2.53;;
8331;SDS011;4203;48.144;14.118;2023-02-01T02:55:54;2.10;;;2.00;;
8331;SDS011;4203;48.144;14.118;2023-02-01T02:58:40;2.67;;;2.27;;
8331;SDS011;4203;48.144;14.118;2023-02-01T03:01:26;2.27;;;2.13;;
8331;SDS011;4203;48.144;14.118;2023-02-01T03:04:12;2.77;;;2.57;;
8331;SDS011;4203;48.144;14.118;2023-02-01T03:06:42;3.27;;;2.70;;
8331;SDS011;4203;48.144;14.118;2023-02-01T03:09:13;3.03;;;2.73;;
8331;SDS011;4203;48.144;14.118;2023-02-01T03:11:47;2.67;;;2.43;;
8331;SDS011;4203;48.144;14.118;2023-02-01T03:14:36;2.80;;;2.60;;
8331;SDS011;4203;48.144;14.118;2023-02-01T03:17:08;2.60;;;2.40;;
8331;SDS011;4203;48.144;14.118;2023-02-01T03:19:40;2.70;;;2.50;;
8331;SDS011;4203;48.144;14.118;2023-02-01T03:22:14;2.60;;;2.40;;
8331;SDS011;4203;48.144;14.118;2023-02-01T03:24:45;2.83;;;2.63;;
8331;SDS011;4203;48.144;14.118;2023-02-01T03:27:17;3.70;;;2.80;;
8331;SDS011;4203;48.144;14.118;2023-02-01T03:29:49;2.67;;;2.47;;
8331;SDS011;4203;48.144;14.118;2023-02-01T03:32:21;4.00;;;2.87;;
8331;SDS011;4203;48.144;14.118;2023-02-01T03:34:48;3.13;;;2.67;;
8331;SDS011;4203;48.144;14.118;2023-02-01T03:37:20;3.03;;;2.73;;
8331;SDS011;4203;48.144;14.118;2023-02-01T03:39:53;2.77;;;2.57;;
8331;SDS011;4203;48.144;14.118;2023-02-01T03:42:27;3.20;;;3.00;;
8331;SDS011;4203;48.144;14.118;2023-02-01T03:45:01;3.93;;;2.60;;
8331;SDS011;4203;48.144;14.118;2023-02-01T03:47:34;3.53;;;2.73;;
8331;SDS011;4203;48.144;14.118;2023-02-01T03:50:04;3.50;;;2.53;;
8331;SDS011;4203;48.144;14.118;2023-02-01T03:52:36;3.07;;;2.67;;
8331;SDS011;4203;48.144;14.118;2023-02-01T03:55:08;2.60;;;2.40;;
8331;SDS011;4203;48.144;14.118;2023-02-01T03:57:37;5.43;;;2.50;;
8331;SDS011;4203;48.144;14.118;2023-02-01T04:00:15;2.60;;;2.40;;
8331;SDS011;4203;48.144;14.118;2023-02-01T04:02:44;3.37;;;3.07;;
8331;SDS011;4203;48.144;14.118;2023-02-01T04:05:12;2.43;;;2.30;;
8331;SDS011;4203;48.144;14.118;2023-02-01T04:07:39;3.50;;;2.40;;
8331;SDS011;4203;48.144;14.118;2023-02-01T04:10:09;4.93;;;2.37;;
8331;SDS011;4203;48.144;14.118;2023-02-01T04:12:37;2.77;;;2.33;;
8331;SDS011;4203;48.144;14.118;2023-02-01T04:15:05;4.30;;;2.30;;
8331;SDS011;4203;48.144;14.118;2023-02-01T04:17:33;2.30;;;2.10;;
8331;SDS011;4203;48.144;14.118;2023-02-01T04:20:00;2.87;;;2.57;;
8331;SDS011;4203;48.144;14.118;2023-02-01T04:22:27;2.57;;;2.40;;
8331;SDS011;4203;48.144;14.118;2023-02-01T04:24:55;2.20;;;2.10;;
8331;SDS011;4203;48.144;14.118;2023-02-01T04:27:23;2.60;;;2.40;;
8331;SDS011;4203;48.144;14.118;2023-02-01T04:29:50;2.70;;;2.37;;
8331;SDS011;4203;48.144;14.118;2023-02-01T04:32:17;2.30;;;2.10;;
8331;SDS011;4203;48.144;14.118;2023-02-01T04:34:45;2.40;;;2.07;;
8331;SDS011;4203;48.144;14.118;2023-02-01T04:37:13;2.10;;;2.00;;
8331;SDS011;4203;48.144;14.118;2023-02-01T04:39:40;2.57;;;2.20;;
8331;SDS011;4203;48.144;14.118;2023-02-01T04:42:07;1.90;;;1.80;;
8331;SDS011;4203;48.144;14.118;2023-02-01T04:44:36;2.57;;;2.23;;
8331;SDS011;4203;48.144;14.118;2023-02-01T04:47:06;3.80;;;2.13;;
8331;SDS011;4203;48.144;14.118;2023-02-01T04:49:34;2.37;;;2.27;;
8331;SDS011;4203;48.144;14.118;2023-02-01T04:52:01;2.57;;;2.37;;
8331;SDS011;4203;48.144;14.118;2023-02-01T04:54:29;2.10;;;2.00;;
8331;SDS011;4203;48.144;14.118;2023-02-01T04:56:56;2.70;;;2.37;;
8331;SDS011;4203;48.144;14.118;2023-02-01T04:59:23;2.00;;;1.90;;
8331;SDS011;4203;48.144;14.118;2023-02-01T05:01:52;1.97;;;1.87;;
8331;SDS011;4203;48.144;14.118;2023-02-01T05:04:19;2.27;;;2.07;;
8331;SDS011;4203;48.144;14.118;2023-02-01T05:06:46;2.20;;;2.00;;
8331;SDS011;4203;48.144;14.118;2023-02-01T05:09:13;2.13;;;2.03;;
8331;SDS011;4203;48.144;14.118;2023-02-01T05:11:40;2.17;;;2.00;;
8331;SDS011;4203;48.144;14.118;2023-02-01T05:14:25;2.30;;;2.17;;
8331;SDS011;4203;48.144;14.118;2023-02-01T05:16:53;1.93;;;1.83;;
8331;SDS011;4203;48.144;14.118;2023-02-01T05:19:21;3.27;;;2.07;;
8331;SDS011;4203;48.144;14.118;2023-02-01T05:21:48;2.60;;;2.40;;
8331;SDS011;4203;48.144;14.118;2023-02-01T05:24:15;2.27;;;2.17;;
8331;SDS011;4203;48.144;14.118;2023-02-01T05:26:46;2.27;;;2.17;;
8331;SDS011;4203;48.144;14.118;2023-02-01T05:29:15;2.83;;;2.63;;
8331;SDS011;4203;48.144;14.118;2023-02-01T05:31:43;3.30;;;2.70;;
8331;SDS011;4203;48.144;14.118;2023-02-01T05:34:13;2.77;;;2.30;;
8331;SDS011;4203;48.144;14.118;2023-02-01T05:36:40;2.63;;;2.43;;
8331;SDS011;4203;48.144;14.118;2023-02-01T05:39:08;2.70;;;2.50;;
8331;SDS011;4203;48.144;14.118;2023-02-01T05:41:35;2.30;;;2.20;;
8331;SDS011;4203;48.144;14.118;2023-02-01T05:44:03;3.07;;;2.80;;
8331;SDS011;4203;48.144;14.118;2023-02-01T05:46:32;2.70;;;2.50;;
8331;SDS011;4203;48.144;14.118;2023-02-01T05:49:00;2.80;;;2.60;;
8331;SDS011;4203;48.144;14.118;2023-02-01T05:51:28;2.50;;;2.40;;
8331;SDS011;4203;48.144;14.118;2023-02-01T05:53:55;2.53;;;2.33;;
8331;SDS011;4203;48.144;14.118;2023-02-01T05:56:23;2.70;;;2.50;;
8331;SDS011;4203;48.144;14.118;2023-02-01T05:58:50;3.37;;;3.10;;
8331;SDS011;4203;48.144;14.118;2023-02-01T06:01:17;2.90;;;2.70;;
8331;SDS011;4203;48.144;14.118;2023-02-01T06:03:44;3.40;;;2.70;;
8331;SDS011;4203;48.144;14.118;2023-02-01T06:06:12;4.50;;;2.73;;
8331;SDS011;4203;48.144;14.118;2023-02-01T06:08:40;2.83;;;2.63;;
8331;SDS011;4203;48.144;14.118;2023-02-01T06:11:07;2.70;;;2.50;;
8331;SDS011;4203;48.144;14.118;2023-02-01T06:13:35;3.20;;;2.90;;
8331;SDS011;4203;48.144;14.118;2023-02-01T06:16:04;3.00;;;2.80;;
8331;SDS011;4203;48.144;14.118;2023-02-01T06:18:32;3.40;;;3.10;;
8331;SDS011;4203;48.144;14.118;2023-02-01T06:21:00;3.07;;;2.87;;
8331;SDS011;4203;48.144;14.118;2023-02-01T06:23:27;3.03;;;2.83;;
8331;SDS011;4203;48.144;14.118;2023-02-01T06:25:59;2.97;;;2.70;;
8331;SDS011;4203;48.144;14.118;2023-02-01T06:28:27;2.70;;;2.50;;
8331;SDS011;4203;48.144;14.118;2023-02-01T06:30:55;3.70;;;2.43;;
8331;SDS011;4203;48.144;14.118;2023-02-01T06:33:23;3.30;;;2.67;;
8331;SDS011;4203;48.144;14.118;2023-02-01T06:35:56;3.37;;;2.70;;
8331;SDS011;4203;48.144;14.118;2023-02-01T06:38:23;2.63;;;2.43;;
8331;SDS011;4203;48.144;14.118;2023-02-01T06:40:52;3.40;;;3.10;;
8331;SDS011;4203;48.144;14.118;2023-02-01T06:43:21;3.27;;;2.97;;
8331;SDS011;4203;48.144;14.118;2023-02-01T06:45:49;2.97;;;2.70;;
8331;SDS011;4203;48.144;14.118;2023-02-01T06:48:16;4.43;;;2.97;;
8331;SDS011;4203;48.144;14.118;2023-02-01T06:50:43;2.90;;;2.70;;
8331;SDS011;4203;48.144;14.118;2023-02-01T06:53:10;2.80;;;2.60;;
8331;SDS011;4203;48.144;14.118;2023-02-01T06:55:38;4.70;;;2.60;;
8331;SDS011;4203;48.144;14.118;2023-02-01T06:58:05;3.10;;;2.90;;
8331;SDS011;4203;48.144;14.118;2023-02-01T07:00:33;2.83;;;2.60;;
8331;SDS011;4203;48.144;14.118;2023-02-01T07:03:01;2.87;;;2.67;;
8331;SDS011;4203;48.144;14.118;2023-02-01T07:05:28;3.23;;;2.93;;
8331;SDS011;4203;48.144;14.118;2023-02-01T07:07:55;2.67;;;2.47;;
8331;SDS011;4203;48.144;14.118;2023-02-01T07:10:23;3.60;;;2.93;;
8331;SDS011;4203;48.144;14.118;2023-02-01T07:12:50;3.10;;;2.53;;
8331;SDS011;4203;48.144;14.118;2023-02-01T07:15:17;4.37;;;2.53;;
8331;SDS011;4203;48.144;14.118;2023-02-01T07:17:45;3.00;;;2.80;;
8331;SDS011;4203;48.144;14.118;2023-02-01T07:20:14;2.77;;;2.57;;
8331;SDS011;4203;48.144;14.118;2023-02-01T07:22:41;2.70;;;2.50;;
8331;SDS011;4203;48.144;14.118;2023-02-01T07:25:09;3.13;;;2.60;;
8331;SDS011;4203;48.144;14.118;2023-02-01T07:27:36;2.80;;;2.60;;
8331;SDS011;4203;48.144;14.118;2023-02-01T07:30:04;2.87;;;2.67;;
8331;SDS011;4203;48.144;14.118;2023-02-01T07:32:32;2.80;;;2.60;;
8331;SDS011;4203;48.144;14.118;2023-02-01T07:35:01;3.07;;;2.87;;
8331;SDS011;4203;48.144;14.118;2023-02-01T07:37:28;2.97;;;2.77;;
8331;SDS011;4203;48.144;14.118;2023-02-01T07:39:56;5.53;;;3.00;;
8331;SDS011;4203;48.144;14.118;2023-02-01T07:42:23;3.00;;;2.73;;
8331;SDS011;4203;48.144;14.118;2023-02-01T07:44:50;2.83;;;2.63;;
8331;SDS011;4203;48.144;14.118;2023-02-01T07:47:17;2.90;;;2.70;;
8331;SDS011;4203;48.144;14.118;2023-02-01T07:49:45;2.90;;;2.70;;
8331;SDS011;4203;48.144;14.118;2023-02-01T07:52:13;2.97;;;2.73;;
8331;SDS011;4203;48.144;14.118;2023-02-01T07:54:42;2.97;;;2.70;;
8331;SDS011;4203;48.144;14.118;2023-02-01T07:57:09;3.10;;;2.90;;
8331;SDS011;4203;48.144;14.118;2023-02-01T07:59:38;3.40;;;2.90;;
8331;SDS011;4203;48.144;14.118;2023-02-01T08:02:26;3.20;;;2.90;;
8331;SDS011;4203;48.144;14.118;2023-02-01T08:04:52;2.80;;;2.57;;
8331;SDS011;4203;48.144;14.118;2023-02-01T08:07:21;3.00;;;2.80;;
8331;SDS011;4203;48.144;14.118;2023-02-01T08:09:48;3.00;;;2.80;;
8331;SDS011;4203;48.144;14.118;2023-02-01T08:12:15;3.10;;;2.77;;
8331;SDS011;4203;48.144;14.118;2023-02-01T08:14:43;2.90;;;2.63;;
8331;SDS011;4203;48.144;14.118;2023-02-01T08:17:10;2.77;;;2.57;;
8331;SDS011;4203;48.144;14.118;2023-02-01T08:19:37;3.73;;;2.50;;
8331;SDS011;4203;48.144;14.118;2023-02-01T08:22:04;2.73;;;2.50;;
8331;SDS011;4203;48.144;14.118;2023-02-01T08:24:34;2.50;;;2.33;;
8331;SDS011;4203;48.144;14.118;2023-02-01T08:27:03;2.83;;;2.63;;
8331;SDS011;4203;48.144;14.118;2023-02-01T08:29:30;3.27;;;2.97;;
8331;SDS011;4203;48.144;14.118;2023-02-01T08:31:57;3.17;;;2.80;;
8331;SDS011;4203;48.144;14.118;2023-02-01T08:34:25;3.13;;;2.83;;
8331;SDS011;4203;48.144;14.118;2023-02-01T08:36:52;3.07;;;2.87;;
8331;SDS011;4203;48.144;14.118;2023-02-01T08:39:23;3.00;;;2.70;;
8331;SDS011;4203;48.144;14.118;2023-02-01T08:41:52;3.00;;;2.73;;
8331;SDS011;4203;48.144;14.118;2023-02-01T08:44:33;3.23;;;2.93;;
8331;SDS011;4203;48.144;14.118;2023-02-01T08:47:01;3.03;;;2.83;;
8331;SDS011;4203;48.144;14.118;2023-02-01T08:49:29;4.03;;;2.87;;
8331;SDS011;4203;48.144;14.118;2023-02-01T08:51:56;3.17;;;2.87;;
8331;SDS011;4203;48.144;14.118;2023-02-01T08:54:23;2.63;;;2.43;;
8331;SDS011;4203;48.144;14.118;2023-02-01T08:56:50;4.37;;;2.90;;
8331;SDS011;4203;48.144;14.118;2023-02-01T08:59:20;3.03;;;2.83;;
8331;SDS011;4203;48.144;14.118;2023-02-01T09:01:47;2.80;;;2.70;;
8331;SDS011;4203;48.144;14.118;2023-02-01T09:04:14;4.23;;;3.10;;
8331;SDS011;4203;48.144;14.118;2023-02-01T09:06:41;2.67;;;2.47;;
8331;SDS011;4203;48.144;14.118;2023-02-01T09:09:09;3.30;;;3.00;;
8331;SDS011;4203;48.144;14.118;2023-02-01T09:11:36;2.53;;;2.33;;
8331;SDS011;4203;48.144;14.118;2023-02-01T09:14:05;3.20;;;2.90;;
8331;SDS011;4203;48.144;14.118;2023-02-01T09:16:32;2.60;;;2.40;;
8331;SDS011;4203;48.144;14.118;2023-02-01T09:18:59;2.90;;;2.60;;
8331;SDS011;4203;48.144;14.118;2023-02-01T09:21:26;2.73;;;2.53;;
8331;SDS011;4203;48.144;14.118;2023-02-01T09:23:54;2.50;;;2.30;;
8331;SDS011;4203;48.144;14.118;2023-02-01T09:26:21;3.20;;;2.90;;
8331;SDS011;4203;48.144;14.118;2023-02-01T09:28:48;3.67;;;2.87;;
8331;SDS011;4203;48.144;14.118;2023-02-01T09:31:17;3.33;;;2.87;;
8331;SDS011;4203;48.144;14.118;2023-02-01T09:33:44;2.60;;;2.40;;
8331;SDS011;4203;48.144;14.118;2023-02-01T09:36:11;3.00;;;2.80;;
8331;SDS011;4203;48.144;14.118;2023-02-01T09:38:39;2.60;;;2.40;;
8331;SDS011;4203;48.144;14.118;2023-02-01T09:41:07;4.23;;;2.90;;
8331;SDS011;4203;48.144;14.118;2023-02-01T09:43:48;2.70;;;2.50;;
8331;SDS011;4203;48.144;14.118;2023-02-01T09:46:26;2.20;;;2.10;;
8331;SDS011;4203;48.144;14.118;2023-02-01T09:48:55;2.70;;;2.50;;
8331;SDS011;4203;48.144;14.118;2023-02-01T09:51:26;2.57;;;2.47;;
8331;SDS011;4203;48.144;14.118;2023-02-01T09:53:58;3.50;;;2.63;;
8331;SDS011;4203;48.144;14.118;2023-02-01T09:56:33;2.10;;;2.00;;
8331;SDS011;4203;48.144;14.118;2023-02-01T09:59:04;3.00;;;2.53;;
8331;SDS011;4203;48.144;14.118;2023-02-01T10:01:45;2.77;;;2.40;;
8331;SDS011;4203;48.144;14.118;2023-02-01T10:04:13;2.93;;;2.70;;
8331;SDS011;4203;48.144;14.118;2023-02-01T10:06:48;2.97;;;2.70;;
8331;SDS011;4203;48.144;14.118;2023-02-01T10:09:29;2.70;;;2.17;;
8331;SDS011;4203;48.144;14.118;2023-02-01T10:12:24;2.40;;;2.20;;
8331;SDS011;4203;48.144;14.118;2023-02-01T10:15:15;2.73;;;2.53;;
8331;SDS011;4203;48.144;14.118;2023-02-01T10:18:07;2.73;;;2.50;;
8331;SDS011;4203;48.144;14.118;2023-02-01T10:20:46;2.33;;;2.13;;
8331;SDS011;4203;48.144;14.118;2023-02-01T10:23:28;3.10;;;2.77;;
8331;SDS011;4203;48.144;14.118;2023-02-01T10:26:17;5.23;;;2.70;;
8331;SDS011;4203;48.144;14.118;2023-02-01T10:28:46;3.00;;;2.80;;
8331;SDS011;4203;48.144;14.118;2023-02-01T10:31:16;2.60;;;2.30;;
8331;SDS011;4203;48.144;14.118;2023-02-01T10:33:46;2.73;;;2.53;;
8331;SDS011;4203;48.144;14.118;2023-02-01T10:36:17;3.77;;;2.30;;
8331;SDS011;4203;48.144;14.118;2023-02-01T10:38:48;2.60;;;2.40;;
8331;SDS011;4203;48.144;14.118;2023-02-01T10:41:16;2.60;;;2.40;;
8331;SDS011;4203;48.144;14.118;2023-02-01T10:43:48;2.20;;;2.10;;
8331;SDS011;4203;48.144;14.118;2023-02-01T10:46:17;3.30;;;2.43;;
8331;SDS011;4203;48.144;14.118;2023-02-01T10:48:45;2.60;;;2.47;;
8331;SDS011;4203;48.144;14.118;2023-02-01T10:51:15;2.40;;;2.20;;
8331;SDS011;4203;48.144;14.118;2023-02-01T10:53:48;2.20;;;2.10;;
8331;SDS011;4203;48.144;14.118;2023-02-01T10:56:21;3.80;;;2.50;;
8331;SDS011;4203;48.144;14.118;2023-02-01T10:58:50;2.53;;;2.33;;
8331;SDS011;4203;48.144;14.118;2023-02-01T11:01:19;2.50;;;2.30;;
8331;SDS011;4203;48.144;14.118;2023-02-01T11:03:54;2.30;;;2.20;;
8331;SDS011;4203;48.144;14.118;2023-02-01T11:06:27;2.63;;;2.33;;
8331;SDS011;4203;48.144;14.118;2023-02-01T11:08:57;2.67;;;2.47;;
8331;SDS011;4203;48.144;14.118;2023-02-01T11:11:27;2.87;;;2.30;;
8331;SDS011;4203;48.144;14.118;2023-02-01T11:13:55;2.50;;;2.30;;
8331;SDS011;4203;48.144;14.118;2023-02-01T11:16:33;2.87;;;2.67;;
8331;SDS011;4203;48.144;14.118;2023-02-01T11:19:06;2.40;;;2.20;;
8331;SDS011;4203;48.144;14.118;2023-02-01T11:21:33;3.43;;;2.77;;
8331;SDS011;4203;48.144;14.118;2023-02-01T11:24:01;3.60;;;2.20;;
8331;SDS011;4203;48.144;14.118;2023-02-01T11:26:29;3.30;;;2.27;;
8331;SDS011;4203;48.144;14.118;2023-02-01T11:28:58;2.20;;;2.07;;
8331;SDS011;4203;48.144;14.118;2023-02-01T11:31:29;3.10;;;2.10;;
8331;SDS011;4203;48.144;14.118;2023-02-01T11:33:59;3.70;;;2.20;;
8331;SDS011;4203;48.144;14.118;2023-02-01T11:36:33;2.90;;;2.60;;
8331;SDS011;4203;48.144;14.118;2023-02-01T11:39:14;2.97;;;2.70;;
8331;SDS011;4203;48.144;14.118;2023-02-01T11:41:55;3.03;;;2.73;;
8331;SDS011;4203;48.144;14.118;2023-02-01T11:44:29;2.25;;;2.10;;
8331;SDS011;4203;48.144;14.118;2023-02-01T11:47:16;3.43;;;2.10;;
8331;SDS011;4203;48.144;14.118;2023-02-01T11:49:52;2.57;;;2.37;;
8331;SDS011;4203;48.144;14.118;2023-02-01T11:52:29;2.83;;;2.57;;
8331;SDS011;4203;48.144;14.118;2023-02-01T11:55:17;2.40;;;2.20;;
8331;SDS011;4203;48.144;14.118;2023-02-01T11:58:02;4.27;;;2.10;;
8331;SDS011;4203;48.144;14.118;2023-02-01T12:01:09;2.37;;;2.17;;
8331;SDS011;4203;48.144;14.118;2023-02-01T12:06:48;2.13;;;2.03;;
8331;SDS011;4203;48.144;14.118;2023-02-01T12:09:29;2.10;;;2.00;;
8331;SDS011;4203;48.144;14.118;2023-02-01T12:12:08;2.40;;;2.20;;
8331;SDS011;4203;48.144;14.118;2023-02-01T12:14:49;2.17;;;2.00;;
8331;SDS011;4203;48.144;14.118;2023-02-01T12:17:41;3.23;;;2.30;;
8331;SDS011;4203;48.144;14.118;2023-02-01T12:20:24;2.17;;;1.97;;
8331;SDS011;4203;48.144;14.118;2023-02-01T12:23:09;2.10;;;2.00;;
8331;SDS011;4203;48.144;14.118;2023-02-01T12:25:56;2.10;;;1.90;;
8331;SDS011;4203;48.144;14.118;2023-02-01T12:31:37;2.10;;;2.00;;
8331;SDS011;4203;48.144;14.118;2023-02-01T12:34:23;2.17;;;2.03;;
8331;SDS011;4203;48.144;14.118;2023-02-01T12:37:02;2.03;;;1.90;;
8331;SDS011;4203;48.144;14.118;2023-02-01T12:39:39;3.00;;;2.30;;
8331;SDS011;4203;48.144;14.118;2023-02-01T12:42:16;5.10;;;2.40;;
8331;SDS011;4203;48.144;14.118;2023-02-01T12:44:50;2.00;;;1.90;;
8331;SDS011;4203;48.144;14.118;2023-02-01T12:47:24;2.50;;;2.00;;
8331;SDS011;4203;48.144;14.118;2023-02-01T12:49:57;2.97;;;2.17;;
8331;SDS011;4203;48.144;14.118;2023-02-01T12:52:30;2.00;;;1.90;;
8331;SDS011;4203;48.144;14.118;2023-02-01T12:55:07;3.53;;;2.10;;
8331;SDS011;4203;48.144;14.118;2023-02-01T12:57:50;2.37;;;2.17;;
8331;SDS011;4203;48.144;14.118;2023-02-01T13:00:23;2.57;;;2.00;;
8331;SDS011;4203;48.144;14.118;2023-02-01T13:02:59;2.77;;;2.07;;
8331;SDS011;4203;48.144;14.118;2023-02-01T13:05:37;2.03;;;1.87;;
8331;SDS011;4203;48.144;14.118;2023-02-01T13:08:14;3.73;;;2.27;;
8331;SDS011;4203;48.144;14.118;2023-02-01T13:10:46;2.23;;;2.13;;
8331;SDS011;4203;48.144;14.118;2023-02-01T13:13:20;2.27;;;2.10;;
8331;SDS011;4203;48.144;14.118;2023-02-01T13:15:55;1.93;;;1.83;;
8331;SDS011;4203;48.144;14.118;2023-02-01T13:18:39;2.10;;;2.00;;
8331;SDS011;4203;48.144;14.118;2023-02-01T13:21:12;2.47;;;1.90;;
8331;SDS011;4203;48.144;14.118;2023-02-01T13:23:44;4.13;;;2.10;;
8331;SDS011;4203;48.144;14.118;2023-02-01T13:26:14;2.20;;;2.00;;
8331;SDS011;4203;48.144;14.118;2023-02-01T13:28:44;5.47;;;2.30;;
8331;SDS011;4203;48.144;14.118;2023-02-01T13:31:21;6.93;;;1.90;;
8331;SDS011;4203;48.144;14.118;2023-02-01T13:34:15;2.40;;;2.20;;
8331;SDS011;4203;48.144;14.118;2023-02-01T13:37:18;2.37;;;2.17;;
8331;SDS011;4203;48.144;14.118;2023-02-01T13:39:59;3.47;;;2.10;;
8331;SDS011;4203;48.144;14.118;2023-02-01T13:42:44;3.87;;;2.00;;
8331;SDS011;4203;48.144;14.118;2023-02-01T13:45:16;4.50;;;2.13;;
8331;SDS011;4203;48.144;14.118;2023-02-01T13:47:47;3.23;;;2.33;;
8331;SDS011;4203;48.144;14.118;2023-02-01T13:50:20;4.97;;;2.07;;
8331;SDS011;4203;48.144;14.118;2023-02-01T13:52:52;2.30;;;2.10;;
8331;SDS011;4203;48.144;14.118;2023-02-01T13:55:28;3.37;;;2.13;;
8331;SDS011;4203;48.144;14.118;2023-02-01T13:58:00;3.20;;;2.57;;
8331;SDS011;4203;48.144;14.118;2023-02-01T14:00:38;3.73;;;2.30;;
8331;SDS011;4203;48.144;14.118;2023-02-01T14:03:09;4.63;;;2.90;;
8331;SDS011;4203;48.144;14.118;2023-02-01T14:09:11;6.30;;;2.70;;
8331;SDS011;4203;48.144;14.118;2023-02-01T14:11:42;2.60;;;2.40;;
8331;SDS011;4203;48.144;14.118;2023-02-01T14:23:29;5.93;;;3.13;;
8331;SDS011;4203;48.144;14.118;2023-02-01T14:26:05;9.27;;;2.97;;
8331;SDS011;4203;48.144;14.118;2023-02-01T14:28:36;7.33;;;3.40;;
8331;SDS011;4203;48.144;14.118;2023-02-01T14:34:13;7.67;;;3.20;;
8331;SDS011;4203;48.144;14.118;2023-02-01T14:36:45;4.70;;;3.20;;
8331;SDS011;4203;48.144;14.118;2023-02-01T14:39:19;4.50;;;3.27;;
8331;SDS011;4203;48.144;14.118;2023-02-01T14:41:51;3.97;;;3.47;;
8331;SDS011;4203;48.144;14.118;2023-02-01T14:44:23;5.10;;;2.87;;
8331;SDS011;4203;48.144;14.118;2023-02-01T14:47:09;3.47;;;2.93;;
8331;SDS011;4203;48.144;14.118;2023-02-01T14:49:55;2.80;;;2.50;;
8331;SDS011;4203;48.144;14.118;2023-02-01T14:52:39;5.30;;;2.83;;
8331;SDS011;4203;48.144;14.118;2023-02-01T14:55:11;3.13;;;2.67;;
8331;SDS011;4203;48.144;14.118;2023-02-01T14:57:41;2.67;;;2.47;;
8331;SDS011;4203;48.144;14.118;2023-02-01T15:00:16;4.33;;;3.00;;
8331;SDS011;4203;48.144;14.118;2023-02-01T15:02:47;2.70;;;2.40;;
8331;SDS011;4203;48.144;14.118;2023-02-01T15:05:32;2.70;;;2.50;;
8331;SDS011;4203;48.144;14.118;2023-02-01T15:08:04;2.93;;;2.73;;
8331;SDS011;4203;48.144;14.118;2023-02-01T15:10:40;4.70;;;3.27;;
8331;SDS011;4203;48.144;14.118;2023-02-01T15:13:18;2.70;;;2.50;;
8331;SDS011;4203;48.144;14.118;2023-02-01T15:16:00;4.07;;;2.40;;
8331;SDS011;4203;48.144;14.118;2023-02-01T15:18:28;3.20;;;2.47;;
8331;SDS011;4203;48.144;14.118;2023-02-01T15:20:58;5.53;;;2.50;;
8331;SDS011;4203;48.144;14.118;2023-02-01T15:23:27;4.03;;;2.63;;
8331;SDS011;4203;48.144;14.118;2023-02-01T15:25:54;3.73;;;2.73;;
8331;SDS011;4203;48.144;14.118;2023-02-01T15:28:21;5.70;;;2.70;;
8331;SDS011;4203;48.144;14.118;2023-02-01T15:30:54;3.47;;;2.30;;
8331;SDS011;4203;48.144;14.118;2023-02-01T15:33:23;5.47;;;2.80;;
8331;SDS011;4203;48.144;14.118;2023-02-01T15:35:51;3.80;;;2.37;;
8331;SDS011;4203;48.144;14.118;2023-02-01T15:38:36;3.60;;;2.20;;
8331;SDS011;4203;48.144;14.118;2023-02-01T15:41:05;4.43;;;2.43;;
8331;SDS011;4203;48.144;14.118;2023-02-01T15:43:36;3.93;;;2.50;;
8331;SDS011;4203;48.144;14.118;2023-02-01T15:46:09;4.47;;;2.47;;
8331;SDS011;4203;48.144;14.118;2023-02-01T15:48:40;4.60;;;2.30;;
8331;SDS011;4203;48.144;14.118;2023-02-01T15:51:11;2.10;;;2.00;;
8331;SDS011;4203;48.144;14.118;2023-02-01T15:53:45;6.33;;;2.43;;
8331;SDS011;4203;48.144;14.118;2023-02-01T15:56:14;4.70;;;2.57;;
8331;SDS011;4203;48.144;14.118;2023-02-01T15:58:44;3.83;;;2.23;;
8331;SDS011;4203;48.144;14.118;2023-02-01T16:01:14;9.67;;;2.40;;